createdAt,value
2017-10-24T00:00:19.174Z,12.5
2017-10-24T00:01:40.694Z,12.41
2017-10-24T00:03:02.534Z,12.39
2017-10-24T00:04:24.051Z,12.52
2017-10-24T00:05:45.917Z,12.53
2017-10-24T00:07:08.183Z,12.54
2017-10-24T00:08:30.684Z,12.59
2017-10-24T00:09:52.855Z,12.56
2017-10-24T00:11:15.491Z,12.53
2017-10-24T00:12:37.340Z,12.5
2017-10-24T00:13:58.858Z,12.5
2017-10-24T00:15:21.156Z,12.5
2017-10-24T00:16:43.385Z,12.56
2017-10-24T00:18:04.677Z,12.52
2017-10-24T00:19:26.284Z,12.52
2017-10-24T00:20:48.164Z,12.56
2017-10-24T00:22:10.027Z,12.57
2017-10-24T00:23:32.516Z,12.59
2017-10-24T00:24:54.364Z,12.59
2017-10-24T00:26:16.466Z,12.59
2017-10-24T00:27:38.304Z,12.59
2017-10-24T00:29:00.265Z,12.62
2017-10-24T00:30:22.114Z,12.65
2017-10-24T00:31:44.770Z,12.68
2017-10-24T00:33:05.939Z,12.7
2017-10-24T00:34:27.466Z,12.65
2017-10-24T00:35:49.993Z,12.7
2017-10-24T00:37:11.491Z,12.72
2017-10-24T00:38:33.417Z,12.79
2017-10-24T00:39:54.945Z,12.68
2017-10-24T00:41:17.468Z,12.72
2017-10-24T00:42:39.315Z,12.75
2017-10-24T00:44:01.149Z,12.75
2017-10-24T00:45:22.325Z,12.75
2017-10-24T00:46:44.177Z,12.79
2017-10-24T00:48:06.342Z,12.78
2017-10-24T00:49:28.568Z,12.83
2017-10-24T00:50:50.735Z,12.85
2017-10-24T00:52:12.243Z,12.82
2017-10-24T00:53:35.075Z,12.79
2017-10-24T00:54:56.585Z,12.83
2017-10-24T00:56:18.775Z,12.87
2017-10-24T00:57:40.971Z,12.82
2017-10-24T00:59:03.401Z,12.82
2017-10-24T01:00:25.262Z,12.79
2017-10-24T01:01:47.484Z,12.92
2017-10-24T01:03:09.341Z,12.85
2017-10-24T01:04:30.876Z,12.85
2017-10-24T01:05:52.154Z,12.77
2017-10-24T01:07:14.348Z,12.72
2017-10-24T01:08:36.574Z,12.77
2017-10-24T01:09:58.683Z,12.77
2017-10-24T01:11:20.008Z,12.72
2017-10-24T01:12:42.505Z,12.62
2017-10-24T01:14:05.034Z,12.59
2017-10-24T01:15:27.316Z,12.6
2017-10-24T01:16:49.165Z,12.57
2017-10-24T01:18:10.705Z,12.52
2017-10-24T01:19:32.905Z,12.67
2017-10-24T01:20:55.603Z,12.62
2017-10-24T01:22:17.105Z,12.5
2017-10-24T01:23:38.986Z,12.57
2017-10-24T01:25:01.156Z,12.54
2017-10-24T01:26:23.355Z,12.56
2017-10-24T01:27:44.929Z,12.57
2017-10-24T01:29:07.158Z,12.59
2017-10-24T01:30:29.335Z,12.54
2017-10-24T01:31:51.446Z,12.56
2017-10-24T01:33:13.630Z,12.56
2017-10-24T01:34:34.819Z,12.5
2017-10-24T01:35:56.373Z,12.57
2017-10-24T01:37:18.372Z,12.52
2017-10-24T01:38:40.565Z,12.5
2017-10-24T01:40:02.071Z,12.53
2017-10-24T01:41:24.236Z,12.53
2017-10-24T01:42:46.391Z,12.41
2017-10-24T01:44:08.918Z,12.52
2017-10-24T01:45:31.440Z,12.47
2017-10-24T01:46:53.282Z,12.41
2017-10-24T01:48:15.465Z,12.42
2017-10-24T01:49:37.335Z,12.37
2017-10-24T01:50:59.186Z,12.45
2017-10-24T01:52:21.416Z,12.37
2017-10-24T01:53:44.186Z,12.45
2017-10-24T01:55:06.012Z,12.46
2017-10-24T01:56:28.197Z,12.46
2017-10-24T01:57:50.036Z,12.45
2017-10-24T01:59:11.532Z,12.41
2017-10-24T02:00:33.130Z,12.42
2017-10-24T02:01:54.975Z,12.39
2017-10-24T02:03:16.469Z,12.42
2017-10-24T02:04:38.901Z,12.39
2017-10-24T02:06:00.406Z,12.41
2017-10-24T02:07:22.586Z,12.41
2017-10-24T02:08:44.750Z,12.46
2017-10-24T02:10:06.606Z,12.31
2017-10-24T02:11:27.463Z,12.29
2017-10-24T02:12:49.136Z,12.2
2017-10-24T02:14:11.400Z,12.09
2017-10-24T02:15:33.898Z,12.01
2017-10-24T02:16:56.126Z,11.94
2017-10-24T02:18:18.629Z,11.9
2017-10-24T02:19:40.572Z,11.72
2017-10-24T02:21:02.745Z,11.69
2017-10-24T02:22:24.610Z,11.73
2017-10-24T02:23:46.462Z,11.65
2017-10-24T02:25:07.986Z,11.62
2017-10-24T02:26:30.505Z,11.61
2017-10-24T02:27:52.386Z,11.62
2017-10-24T02:29:14.226Z,11.64
2017-10-24T02:30:36.406Z,11.64
2017-10-24T02:31:58.000Z,11.64
2017-10-24T02:33:20.178Z,11.67
2017-10-24T02:34:42.354Z,11.72
2017-10-24T02:36:04.864Z,11.62
2017-10-24T02:37:27.330Z,11.69
2017-10-24T02:38:49.176Z,11.7
2017-10-24T02:40:11.121Z,11.64
2017-10-24T02:41:33.016Z,11.62
2017-10-24T02:42:54.865Z,11.61
2017-10-24T02:44:16.761Z,11.67
2017-10-24T02:45:38.950Z,11.62
2017-10-24T02:47:00.852Z,11.75
2017-10-24T02:48:23.334Z,11.73
2017-10-24T02:49:45.255Z,11.73
2017-10-24T02:51:06.085Z,11.62
2017-10-24T02:52:28.660Z,11.69
2017-10-24T02:53:50.821Z,11.54
2017-10-24T02:55:12.699Z,11.43
2017-10-24T02:56:34.258Z,11.36
2017-10-24T02:57:56.456Z,11.28
2017-10-24T02:59:18.656Z,11.22
2017-10-24T03:00:41.237Z,11.11
2017-10-24T03:02:02.760Z,11
2017-10-24T03:03:24.976Z,10.86
2017-10-24T03:04:47.837Z,10.89
2017-10-24T03:06:10.004Z,10.71
2017-10-24T03:07:32.175Z,10.66
2017-10-24T03:08:54.161Z,10.52
2017-10-24T03:10:16.329Z,10.53
2017-10-24T03:11:38.176Z,10.47
2017-10-24T03:13:00.035Z,10.47
2017-10-24T03:14:22.205Z,10.44
2017-10-24T03:15:44.632Z,10.4
2017-10-24T03:17:07.163Z,10.41
2017-10-24T03:18:29.378Z,10.41
2017-10-24T03:19:51.212Z,10.32
2017-10-24T03:21:13.186Z,10.3
2017-10-24T03:22:34.688Z,10.32
2017-10-24T03:23:56.980Z,10.22
2017-10-24T03:25:18.510Z,10.15
2017-10-24T03:26:40.362Z,10.11
2017-10-24T03:28:02.974Z,10.14
2017-10-24T03:29:24.835Z,10.12
2017-10-24T03:30:46.350Z,10.08
2017-10-24T03:32:07.860Z,10.05
2017-10-24T03:33:30.114Z,10.07
2017-10-24T03:34:52.604Z,10.11
2017-10-24T03:36:13.786Z,10.17
2017-10-24T03:37:35.314Z,10.25
2017-10-24T03:38:56.835Z,10.32
2017-10-24T03:40:19.027Z,10.34
2017-10-24T03:41:41.194Z,10.44
2017-10-24T03:43:02.396Z,10.47
2017-10-24T03:44:24.283Z,10.6
2017-10-24T03:45:46.883Z,10.52
2017-10-24T03:47:09.390Z,10.64
2017-10-24T03:48:31.487Z,10.61
2017-10-24T03:49:53.676Z,10.64
2017-10-24T03:51:15.639Z,10.67
2017-10-24T03:52:37.899Z,10.73
2017-10-24T03:54:00.414Z,10.74
2017-10-24T03:55:21.923Z,10.82
2017-10-24T03:56:43.425Z,10.84
2017-10-24T03:58:05.622Z,10.96
2017-10-24T03:59:28.055Z,11.02
2017-10-24T04:00:50.562Z,11.04
2017-10-24T04:02:12.408Z,11.07
2017-10-24T04:03:35.007Z,11.07
2017-10-24T04:04:57.006Z,11.14
2017-10-24T04:06:19.186Z,11.1
2017-10-24T04:07:41.441Z,11.15
2017-10-24T04:09:02.974Z,11.15
2017-10-24T04:10:25.075Z,11.18
2017-10-24T04:11:47.294Z,11.27
2017-10-24T04:13:09.479Z,11.22
2017-10-24T04:14:31.669Z,11.19
2017-10-24T04:15:53.855Z,11.19
2017-10-24T04:17:15.692Z,11.19
2017-10-24T04:18:37.870Z,11.32
2017-10-24T04:19:59.375Z,11.22
2017-10-24T04:21:21.221Z,11.35
2017-10-24T04:22:43.143Z,11.28
2017-10-24T04:24:05.084Z,11.29
2017-10-24T04:25:27.357Z,11.32
2017-10-24T04:27:04.445Z,11.35
2017-10-24T04:28:26.640Z,11.29
2017-10-24T04:29:48.204Z,11.27
2017-10-24T04:31:10.074Z,11.33
2017-10-24T04:32:32.597Z,11.28
2017-10-24T04:33:55.013Z,11.39
2017-10-24T04:35:16.844Z,11.36
2017-10-24T04:36:39.087Z,11.35
2017-10-24T04:38:01.326Z,11.37
2017-10-24T04:39:23.494Z,11.4
2017-10-24T04:40:45.338Z,11.37
2017-10-24T04:42:07.507Z,11.42
2017-10-24T04:43:30.004Z,11.46
2017-10-24T04:44:52.514Z,11.46
2017-10-24T04:46:14.766Z,11.49
2017-10-24T04:47:36.309Z,11.44
2017-10-24T04:48:58.176Z,11.54
2017-10-24T04:50:20.014Z,11.55
2017-10-24T04:51:42.187Z,11.54
2017-10-24T04:53:04.105Z,11.52
2017-10-24T04:54:25.990Z,11.54
2017-10-24T04:55:47.823Z,11.51
2017-10-24T04:57:10.007Z,11.49
2017-10-24T04:58:32.236Z,11.54
2017-10-24T04:59:54.401Z,11.57
2017-10-24T05:01:17.051Z,11.67
2017-10-24T05:02:39.241Z,11.61
2017-10-24T05:04:01.085Z,11.54
2017-10-24T05:05:23.027Z,11.61
2017-10-24T05:06:45.300Z,11.58
2017-10-24T05:08:07.484Z,11.58
2017-10-24T05:09:29.705Z,11.6
2017-10-24T05:10:51.214Z,11.58
2017-10-24T05:12:12.726Z,11.58
2017-10-24T05:13:34.915Z,11.61
2017-10-24T05:14:56.853Z,11.62
2017-10-24T05:16:17.714Z,11.61
2017-10-24T05:17:40.313Z,11.62
2017-10-24T05:19:01.848Z,11.65
2017-10-24T05:20:23.694Z,11.69
2017-10-24T05:21:46.208Z,11.6
2017-10-24T05:23:08.160Z,11.61
2017-10-24T05:24:30.519Z,11.64
2017-10-24T05:25:52.801Z,11.72
2017-10-24T05:27:13.993Z,11.65
2017-10-24T05:28:35.834Z,11.7
2017-10-24T05:29:58.442Z,11.72
2017-10-24T05:31:19.963Z,11.69
2017-10-24T05:32:41.476Z,11.65
2017-10-24T05:34:03.999Z,11.65
2017-10-24T05:35:25.726Z,11.58
2017-10-24T05:36:47.263Z,11.62
2017-10-24T05:38:08.464Z,11.64
2017-10-24T05:39:30.630Z,11.65
2017-10-24T05:40:52.797Z,11.64
2017-10-24T05:42:15.321Z,11.62
2017-10-24T05:43:36.823Z,11.69
2017-10-24T05:44:58.680Z,11.64
2017-10-24T05:46:20.513Z,11.7
2017-10-24T05:47:42.475Z,11.72
2017-10-24T05:49:04.992Z,11.75
2017-10-24T05:50:26.855Z,11.72
2017-10-24T05:51:49.406Z,11.7
2017-10-24T05:53:11.243Z,11.82
2017-10-24T05:54:33.423Z,11.75
2017-10-24T05:55:55.678Z,11.85
2017-10-24T05:57:17.516Z,11.75
2017-10-24T05:58:39.689Z,11.76
2017-10-24T06:00:01.955Z,11.75
2017-10-24T06:01:23.793Z,11.76
2017-10-24T06:02:45.397Z,11.76
2017-10-24T06:04:06.923Z,11.75
2017-10-24T06:05:28.786Z,11.8
2017-10-24T06:06:50.284Z,11.73
2017-10-24T06:08:12.804Z,11.76
2017-10-24T06:09:34.654Z,11.73
2017-10-24T06:10:56.505Z,11.75
2017-10-24T06:12:18.410Z,11.79
2017-10-24T06:13:40.264Z,11.78
2017-10-24T06:15:02.441Z,11.83
2017-10-24T06:16:24.284Z,11.9
2017-10-24T06:17:46.814Z,11.86
2017-10-24T06:19:09.474Z,11.9
2017-10-24T06:20:31.839Z,11.82
2017-10-24T06:21:53.944Z,11.83
2017-10-24T06:23:16.130Z,11.75
2017-10-24T06:24:37.632Z,11.83
2017-10-24T06:26:00.145Z,11.94
2017-10-24T06:27:21.654Z,11.88
2017-10-24T06:28:43.833Z,11.91
2017-10-24T06:30:06.017Z,11.9
2017-10-24T06:31:27.854Z,11.86
2017-10-24T06:32:50.115Z,11.78
2017-10-24T06:34:12.651Z,11.9
2017-10-24T06:35:34.174Z,11.9
2017-10-24T06:36:56.030Z,11.9
2017-10-24T06:38:17.886Z,12.02
2017-10-24T06:39:40.103Z,11.96
2017-10-24T06:41:01.934Z,12.05
2017-10-24T06:42:24.472Z,11.94
2017-10-24T06:43:46.963Z,12.02
2017-10-24T06:45:09.169Z,12.1
2017-10-24T06:46:30.698Z,12.07
2017-10-24T06:47:53.213Z,12.13
2017-10-24T06:49:15.023Z,12.17
2017-10-24T06:50:37.302Z,12.2
2017-10-24T06:51:59.115Z,12.27
2017-10-24T06:53:21.684Z,12.29
2017-10-24T06:54:43.689Z,12.28
2017-10-24T06:56:05.880Z,12.29
2017-10-24T06:57:27.422Z,12.32
2017-10-24T06:58:49.263Z,12.27
2017-10-24T07:00:11.580Z,12.39
2017-10-24T07:01:33.434Z,12.45
2017-10-24T07:02:55.150Z,12.53
2017-10-24T07:04:16.330Z,12.46
2017-10-24T07:05:38.313Z,12.5
2017-10-24T07:07:00.174Z,12.5
2017-10-24T07:08:22.344Z,12.53
2017-10-24T07:09:44.583Z,12.54
2017-10-24T07:11:06.675Z,12.59
2017-10-24T07:12:29.283Z,12.59
2017-10-24T07:13:50.233Z,12.57
2017-10-24T07:15:12.743Z,12.62
2017-10-24T07:16:34.932Z,12.65
2017-10-24T07:17:57.152Z,12.64
2017-10-24T07:19:18.670Z,12.75
2017-10-24T07:20:40.526Z,12.74
2017-10-24T07:22:02.712Z,12.79
2017-10-24T07:23:24.557Z,12.87
2017-10-24T07:24:46.170Z,12.9
2017-10-24T07:26:08.326Z,13
2017-10-24T07:27:30.203Z,13.03
2017-10-24T07:28:52.104Z,13.05
2017-10-24T07:30:14.300Z,13.03
2017-10-24T07:31:36.144Z,13.04
2017-10-24T07:32:58.665Z,13.15
2017-10-24T07:34:20.845Z,13.15
2017-10-24T07:35:42.666Z,13.15
2017-10-24T07:37:04.845Z,13.14
2017-10-24T07:38:27.337Z,13.17
2017-10-24T07:39:49.852Z,13.15
2017-10-24T07:41:11.371Z,13.3
2017-10-24T07:42:32.881Z,13.29
2017-10-24T07:43:55.303Z,13.33
2017-10-24T07:45:17.153Z,13.36
2017-10-24T07:46:38.713Z,13.38
2017-10-24T07:48:00.889Z,13.41
2017-10-24T07:49:23.204Z,13.45
2017-10-24T07:50:44.736Z,13.42
2017-10-24T07:52:05.905Z,13.46
2017-10-24T07:53:27.438Z,13.46
2017-10-24T07:54:49.944Z,13.63
2017-10-24T07:56:12.467Z,13.64
2017-10-24T07:57:34.292Z,13.57
2017-10-24T07:58:55.832Z,13.64
2017-10-24T08:00:17.354Z,13.73
2017-10-24T08:01:39.687Z,13.75
2017-10-24T08:03:01.521Z,13.64
2017-10-24T08:04:23.022Z,13.71
2017-10-24T08:05:44.905Z,13.71
2017-10-24T08:07:07.090Z,13.62
2017-10-24T08:08:29.404Z,13.7
2017-10-24T08:09:51.242Z,13.59
2017-10-24T08:11:12.803Z,13.54
2017-10-24T08:12:34.427Z,13.55
2017-10-24T08:13:57.092Z,13.54
2017-10-24T08:15:17.944Z,13.42
2017-10-24T08:16:39.800Z,13.49
2017-10-24T08:18:02.334Z,13.46
2017-10-24T08:19:24.543Z,13.46
2017-10-24T08:20:46.737Z,13.45
2017-10-24T08:22:08.809Z,13.51
2017-10-24T08:23:31.030Z,13.48
2017-10-24T08:24:52.886Z,13.6
2017-10-24T08:26:15.077Z,13.49
2017-10-24T08:27:36.924Z,13.54
2017-10-24T08:28:58.829Z,13.63
2017-10-24T08:30:21.409Z,13.7
2017-10-24T08:31:43.267Z,13.62
2017-10-24T08:33:05.141Z,13.66
2017-10-24T08:34:27.183Z,13.73
2017-10-24T08:35:49.714Z,13.81
2017-10-24T08:37:12.135Z,13.82
2017-10-24T08:38:34.721Z,13.92
2017-10-24T08:39:56.644Z,14.07
2017-10-24T08:41:19.170Z,14.15
2017-10-24T08:42:41.037Z,14.27
2017-10-24T08:44:03.157Z,14.2
2017-10-24T08:45:25.661Z,14.37
2017-10-24T08:46:47.849Z,14.43
2017-10-24T08:48:10.385Z,14.33
2017-10-24T08:49:33.145Z,14.43
2017-10-24T08:50:55.681Z,14.55
2017-10-24T08:52:17.872Z,14.68
2017-10-24T08:53:39.873Z,14.64
2017-10-24T08:55:02.148Z,14.62
2017-10-24T08:56:24.364Z,14.78
2017-10-24T08:57:46.521Z,14.84
2017-10-24T08:59:07.775Z,14.83
2017-10-24T09:00:30.204Z,14.78
2017-10-24T09:01:52.452Z,14.8
2017-10-24T09:03:14.997Z,14.89
2017-10-24T09:04:36.855Z,14.91
2017-10-24T09:05:59.702Z,14.86
2017-10-24T09:07:21.937Z,14.91
2017-10-24T09:08:44.138Z,14.94
2017-10-24T09:10:06.341Z,14.92
2017-10-24T09:11:28.254Z,14.84
2017-10-24T09:12:50.120Z,14.99
2017-10-24T09:14:12.304Z,15.1
2017-10-24T09:15:34.835Z,15.19
2017-10-24T09:16:57.049Z,15.39
2017-10-24T09:18:19.233Z,15.51
2017-10-24T09:19:41.407Z,15.54
2017-10-24T09:21:03.911Z,15.59
2017-10-24T09:22:26.193Z,15.59
2017-10-24T09:23:48.753Z,15.65
2017-10-24T09:25:11.059Z,15.67
2017-10-24T09:26:32.924Z,15.71
2017-10-24T09:27:55.263Z,15.68
2017-10-24T09:29:17.113Z,15.64
2017-10-24T09:30:38.640Z,15.43
2017-10-24T09:32:00.812Z,15.44
2017-10-24T09:33:22.686Z,15.49
2017-10-24T09:34:44.563Z,15.49
2017-10-24T09:36:06.494Z,15.54
2017-10-24T09:37:28.344Z,15.43
2017-10-24T09:38:50.568Z,15.54
2017-10-24T09:40:12.724Z,15.49
2017-10-24T09:41:34.928Z,15.41
2017-10-24T09:42:56.768Z,15.43
2017-10-24T09:44:18.963Z,15.51
2017-10-24T09:45:41.171Z,15.49
2017-10-24T09:47:03.416Z,15.47
2017-10-24T09:48:25.608Z,15.46
2017-10-24T09:49:47.476Z,15.56
2017-10-24T09:51:09.993Z,15.5
2017-10-24T09:52:31.876Z,15.62
2017-10-24T09:53:53.830Z,15.54
2017-10-24T09:55:15.684Z,15.62
2017-10-24T09:56:37.190Z,15.65
2017-10-24T09:57:59.362Z,15.69
2017-10-24T09:59:21.239Z,15.6
2017-10-24T10:00:43.752Z,15.59
2017-10-24T10:02:05.302Z,15.46
2017-10-24T10:03:27.212Z,15.47
2017-10-24T10:04:49.069Z,15.32
2017-10-24T10:06:11.294Z,15.32
2017-10-24T10:07:33.832Z,15.32
2017-10-24T10:08:56.013Z,15.31
2017-10-24T10:10:17.594Z,15.47
2017-10-24T10:11:39.323Z,15.68
2017-10-24T10:13:01.258Z,15.8
2017-10-24T10:14:23.149Z,15.74
2017-10-24T10:15:45.333Z,15.65
2017-10-24T10:17:07.843Z,15.82
2017-10-24T10:18:29.744Z,15.82
2017-10-24T10:19:52.261Z,15.96
2017-10-24T10:21:14.138Z,16.01
2017-10-24T10:22:35.995Z,16.09
2017-10-24T10:23:58.192Z,16.07
2017-10-24T10:25:19.943Z,16.23
2017-10-24T10:26:41.612Z,16.27
2017-10-24T10:28:03.527Z,16.3
2017-10-24T10:29:25.398Z,16.43
2017-10-24T10:30:47.644Z,16.56
2017-10-24T10:32:09.932Z,16.68
2017-10-24T10:33:31.903Z,16.83
2017-10-24T10:34:53.785Z,16.89
2017-10-24T10:36:15.992Z,16.91
2017-10-24T10:37:37.531Z,16.86
2017-10-24T10:38:59.731Z,16.88
2017-10-24T10:40:21.903Z,16.88
2017-10-24T10:41:43.732Z,16.85
2017-10-24T10:43:05.278Z,16.88
2017-10-24T10:44:28.246Z,16.89
2017-10-24T10:45:50.440Z,16.94
2017-10-24T10:47:12.294Z,16.75
2017-10-24T10:48:34.545Z,16.67
2017-10-24T10:49:55.844Z,16.7
2017-10-24T10:51:17.491Z,16.67
2017-10-24T10:52:39.013Z,16.81
2017-10-24T10:54:01.201Z,16.96
2017-10-24T10:55:23.414Z,16.96
2017-10-24T10:56:45.613Z,16.97
2017-10-24T10:58:08.123Z,17
2017-10-24T10:59:30.376Z,16.97
2017-10-24T11:00:52.236Z,16.82
2017-10-24T11:02:14.753Z,16.82
2017-10-24T11:03:36.963Z,16.66
2017-10-24T11:04:58.826Z,16.67
2017-10-24T11:06:21.004Z,16.71
2017-10-24T11:07:43.710Z,16.68
2017-10-24T11:09:05.900Z,16.78
2017-10-24T11:10:27.413Z,16.71
2017-10-24T11:11:50.047Z,16.63
2017-10-24T11:13:12.067Z,16.56
2017-10-24T11:14:34.685Z,16.5
2017-10-24T11:15:56.893Z,16.52
2017-10-24T11:17:18.894Z,16.5
2017-10-24T11:18:40.743Z,16.52
2017-10-24T11:20:02.958Z,16.49
2017-10-24T11:21:25.488Z,16.41
2017-10-24T11:22:47.382Z,16.38
2017-10-24T11:24:09.603Z,16.35
2017-10-24T11:25:32.112Z,16.43
2017-10-24T11:26:54.327Z,16.49
2017-10-24T11:28:16.783Z,16.45
2017-10-24T11:29:39.069Z,16.53
2017-10-24T11:31:00.924Z,16.41
2017-10-24T11:32:22.825Z,16.38
2017-10-24T11:33:45.019Z,16.5
2017-10-24T11:35:07.571Z,16.46
2017-10-24T11:36:30.092Z,16.45
2017-10-24T11:37:51.595Z,16.42
2017-10-24T11:39:13.500Z,16.42
2017-10-24T11:40:36.026Z,16.45
2017-10-24T11:41:58.213Z,16.34
2017-10-24T11:43:20.723Z,16.42
2017-10-24T11:44:42.963Z,16.46
2017-10-24T11:46:05.154Z,16.53
2017-10-24T11:47:27.419Z,16.45
2017-10-24T11:48:49.957Z,16.42
2017-10-24T11:50:11.806Z,16.25
2017-10-24T11:51:33.690Z,16.2
2017-10-24T11:52:55.595Z,16.25
2017-10-24T11:54:18.136Z,16.17
2017-10-24T11:55:40.334Z,16.25
2017-10-24T11:57:02.628Z,16.23
2017-10-24T11:58:25.194Z,16.21
2017-10-24T11:59:47.394Z,16.21
2017-10-24T12:01:10.178Z,16.2
2017-10-24T12:02:31.758Z,16.21
2017-10-24T12:03:54.418Z,16.14
2017-10-24T12:05:16.365Z,16.11
2017-10-24T12:06:38.553Z,16.02
2017-10-24T12:08:01.055Z,16.04
2017-10-24T12:09:22.596Z,16.08
2017-10-24T12:10:45.109Z,15.96
2017-10-24T12:12:07.359Z,15.94
2017-10-24T12:13:29.572Z,16.02
2017-10-24T12:14:52.103Z,16.08
2017-10-24T12:16:14.012Z,16.05
2017-10-24T12:17:36.435Z,16.04
2017-10-24T12:18:58.624Z,16.09
2017-10-24T12:20:20.813Z,16.09
2017-10-24T12:21:43.083Z,16.17
2017-10-24T12:23:05.923Z,16.09
2017-10-24T12:24:27.794Z,16.17
2017-10-24T12:25:50.344Z,16.2
2017-10-24T12:27:12.307Z,16.11
2017-10-24T12:28:34.184Z,16.05
2017-10-24T12:29:56.366Z,15.96
2017-10-24T12:31:18.573Z,15.9
2017-10-24T12:32:40.754Z,15.89
2017-10-24T12:34:03.366Z,15.84
2017-10-24T12:35:25.561Z,15.82
2017-10-24T12:36:48.133Z,15.72
2017-10-24T12:38:10.087Z,15.62
2017-10-24T12:39:32.186Z,15.69
2017-10-24T12:40:54.424Z,15.68
2017-10-24T12:42:16.614Z,15.67
2017-10-24T12:43:39.154Z,15.62
2017-10-24T12:45:01.802Z,15.76
2017-10-24T12:46:24.004Z,15.71
2017-10-24T12:47:45.857Z,15.78
2017-10-24T12:49:07.385Z,15.89
2017-10-24T12:50:29.334Z,15.93
2017-10-24T12:51:51.874Z,15.9
2017-10-24T12:53:14.464Z,15.87
2017-10-24T12:54:36.990Z,15.96
2017-10-24T12:55:59.491Z,16.01
2017-10-24T12:57:20.999Z,16.04
2017-10-24T12:58:42.862Z,16.07
2017-10-24T13:00:05.477Z,16.09
2017-10-24T13:01:28.023Z,16.05
2017-10-24T13:02:50.632Z,16.09
2017-10-24T13:04:12.508Z,16.12
2017-10-24T13:05:34.755Z,16.05
2017-10-24T13:06:56.954Z,16.05
2017-10-24T13:08:19.149Z,16.05
2017-10-24T13:09:41.336Z,15.96
2017-10-24T13:11:03.518Z,15.96
2017-10-24T13:12:25.705Z,16.05
2017-10-24T13:13:47.551Z,16.11
2017-10-24T13:15:09.445Z,16.11
2017-10-24T13:16:31.284Z,16.04
2017-10-24T13:17:53.164Z,16.24
2017-10-24T13:19:15.394Z,16.34
2017-10-24T13:20:37.614Z,16.27
2017-10-24T13:21:59.823Z,16.33
2017-10-24T13:23:22.331Z,16.27
2017-10-24T13:24:44.523Z,16.28
2017-10-24T13:26:06.724Z,16.24
2017-10-24T13:27:28.245Z,16.2
2017-10-24T13:28:50.478Z,16.2
2017-10-24T13:30:12.352Z,16.17
2017-10-24T13:31:34.544Z,16.15
2017-10-24T13:32:56.733Z,16.15
2017-10-24T13:34:18.606Z,16.09
2017-10-24T13:35:40.794Z,16.09
2017-10-24T13:37:02.654Z,16.12
2017-10-24T13:38:24.529Z,16.21
2017-10-24T13:39:46.401Z,16.23
2017-10-24T13:41:08.634Z,16.2
2017-10-24T13:42:30.967Z,16.23
2017-10-24T13:43:53.684Z,16.23
2017-10-24T13:45:15.900Z,16.2
2017-10-24T13:46:38.134Z,16.2
2017-10-24T13:48:00.664Z,16.17
2017-10-24T13:49:22.846Z,16.08
2017-10-24T13:50:45.094Z,16.05
2017-10-24T13:52:07.275Z,15.97
2017-10-24T13:53:29.486Z,16
2017-10-24T13:54:51.667Z,15.9
2017-10-24T13:56:14.234Z,15.83
2017-10-24T13:57:36.190Z,15.82
2017-10-24T13:58:58.722Z,15.86
2017-10-24T14:00:20.915Z,15.87
2017-10-24T14:01:43.125Z,15.76
2017-10-24T14:03:05.646Z,15.84
2017-10-24T14:04:27.184Z,15.89
2017-10-24T14:05:49.159Z,15.86
2017-10-24T14:07:11.746Z,15.86
2017-10-24T14:08:33.929Z,15.8
2017-10-24T14:09:56.129Z,15.87
2017-10-24T14:11:18.364Z,15.86
2017-10-24T14:12:40.212Z,15.82
2017-10-24T14:14:02.086Z,15.86
2017-10-24T14:15:24.610Z,15.78
2017-10-24T14:16:47.215Z,15.82
2017-10-24T14:18:08.750Z,15.78
2017-10-24T14:19:30.935Z,15.86
2017-10-24T14:20:53.479Z,15.76
2017-10-24T14:22:16.027Z,15.78
2017-10-24T14:23:37.881Z,15.76
2017-10-24T14:24:59.831Z,15.78
2017-10-24T14:26:22.015Z,15.82
2017-10-24T14:27:43.899Z,15.69
2017-10-24T14:29:05.787Z,15.78
2017-10-24T14:30:28.357Z,15.83
2017-10-24T14:31:50.215Z,15.84
2017-10-24T14:33:12.145Z,15.74
2017-10-24T14:34:34.354Z,15.74
2017-10-24T14:35:57.049Z,15.72
2017-10-24T14:37:18.915Z,15.71
2017-10-24T14:38:41.139Z,15.67
2017-10-24T14:40:03.009Z,15.67
2017-10-24T14:41:25.220Z,15.72
2017-10-24T14:42:47.415Z,15.74
2017-10-24T14:44:09.617Z,15.71
2017-10-24T14:45:31.506Z,15.68
2017-10-24T14:46:53.712Z,15.72
2017-10-24T14:48:15.236Z,15.72
2017-10-24T14:49:37.775Z,15.75
2017-10-24T14:50:59.477Z,15.8
2017-10-24T14:52:21.719Z,15.72
2017-10-24T14:53:44.262Z,15.71
2017-10-24T14:55:05.799Z,15.69
2017-10-24T14:56:27.591Z,15.68
2017-10-24T14:57:49.459Z,15.67
2017-10-24T14:59:11.678Z,15.65
2017-10-24T15:00:33.556Z,15.67
2017-10-24T15:01:56.021Z,15.57
2017-10-24T15:03:17.583Z,15.64
2017-10-24T15:04:39.458Z,15.6
2017-10-24T15:06:01.709Z,15.53
2017-10-24T15:07:23.909Z,15.54
2017-10-24T15:08:45.447Z,15.54
2017-10-24T15:10:07.797Z,15.54
2017-10-24T15:11:30.447Z,15.53
2017-10-24T15:12:52.968Z,15.51
2017-10-24T15:14:15.518Z,15.53
2017-10-24T15:15:37.709Z,15.56
2017-10-24T15:16:59.944Z,15.59
2017-10-24T15:18:22.153Z,15.57
2017-10-24T15:19:44.357Z,15.43
2017-10-24T15:21:06.979Z,15.41
2017-10-24T15:22:29.186Z,15.46
2017-10-24T15:23:51.726Z,15.46
2017-10-24T15:25:13.924Z,15.47
2017-10-24T15:26:36.128Z,15.46
2017-10-24T15:27:58.315Z,15.38
2017-10-24T15:29:20.535Z,15.35
2017-10-24T15:30:42.068Z,15.41
2017-10-24T15:32:04.284Z,15.38
2017-10-24T15:33:26.901Z,15.29
2017-10-24T15:34:49.734Z,15.35
2017-10-24T15:36:11.336Z,15.31
2017-10-24T15:37:34.199Z,15.27
2017-10-24T15:38:56.504Z,15.29
2017-10-24T15:40:18.744Z,15.32
2017-10-24T15:41:40.394Z,15.34
2017-10-24T15:43:02.597Z,15.29
2017-10-24T15:44:24.786Z,15.35
2017-10-24T15:45:47.377Z,15.29
2017-10-24T15:47:09.615Z,15.31
2017-10-24T15:48:31.912Z,15.34
2017-10-24T15:49:53.878Z,15.29
2017-10-24T15:51:16.413Z,15.28
2017-10-24T15:52:38.963Z,15.32
2017-10-24T15:54:01.507Z,15.35
2017-10-24T15:55:23.375Z,15.36
2017-10-24T15:56:45.667Z,15.34
2017-10-24T15:58:07.684Z,15.38
2017-10-24T15:59:30.213Z,15.31
2017-10-24T16:00:52.803Z,15.27
2017-10-24T16:02:15.000Z,15.29
2017-10-24T16:03:37.327Z,15.31
2017-10-24T16:04:59.553Z,15.38
2017-10-24T16:06:22.230Z,15.35
2017-10-24T16:07:44.447Z,15.38
2017-10-24T16:09:06.666Z,15.29
2017-10-24T16:10:28.871Z,15.27
2017-10-24T16:11:50.748Z,15.28
2017-10-24T16:13:13.304Z,15.29
2017-10-24T16:14:35.563Z,15.25
2017-10-24T16:15:57.417Z,15.38
2017-10-24T16:17:19.648Z,15.27
2017-10-24T16:18:41.702Z,15.34
2017-10-24T16:20:03.579Z,15.29
2017-10-24T16:21:25.453Z,15.27
2017-10-24T16:22:48.004Z,15.35
2017-10-24T16:24:10.205Z,15.35
2017-10-24T16:25:32.050Z,15.31
2017-10-24T16:26:54.602Z,15.32
2017-10-24T16:28:17.216Z,15.32
2017-10-24T16:29:39.552Z,15.32
2017-10-24T16:31:01.743Z,15.28
2017-10-24T16:32:24.277Z,15.34
2017-10-24T16:33:46.464Z,15.32
2017-10-24T16:35:08.956Z,15.27
2017-10-24T16:36:31.240Z,15.39
2017-10-24T16:37:53.125Z,15.31
2017-10-24T16:39:15.699Z,15.31
2017-10-24T16:40:37.889Z,15.31
2017-10-24T16:42:00.192Z,15.34
2017-10-24T16:43:22.746Z,15.38
2017-10-24T16:44:45.027Z,15.38
2017-10-24T16:46:07.699Z,15.39
2017-10-24T16:47:29.916Z,15.36
2017-10-24T16:48:52.158Z,15.43
2017-10-24T16:50:14.765Z,15.5
2017-10-24T16:51:36.613Z,15.43
2017-10-24T16:52:58.845Z,15.49
2017-10-24T16:54:20.813Z,15.5
2017-10-24T16:55:42.693Z,15.39
2017-10-24T16:57:05.137Z,15.41
2017-10-24T16:58:27.836Z,15.46
2017-10-24T16:59:50.444Z,15.57
2017-10-24T17:01:12.983Z,15.54
2017-10-24T17:02:35.308Z,15.53
2017-10-24T17:03:57.985Z,15.54
2017-10-24T17:05:20.176Z,15.49
2017-10-24T17:06:42.058Z,15.6
2017-10-24T17:08:04.335Z,15.57
2017-10-24T17:09:26.565Z,15.53
2017-10-24T17:10:48.795Z,15.53
2017-10-24T17:12:11.333Z,15.59
2017-10-24T17:13:33.677Z,15.53
2017-10-24T17:14:56.533Z,15.53
2017-10-24T17:16:18.425Z,15.62
2017-10-24T17:17:40.964Z,15.56
2017-10-24T17:19:02.833Z,15.5
2017-10-24T17:20:25.167Z,15.54
2017-10-24T17:21:47.359Z,15.54
2017-10-24T17:23:08.913Z,15.53
2017-10-24T17:24:31.151Z,15.56
2017-10-24T17:25:53.378Z,15.56
2017-10-24T17:27:15.396Z,15.62
2017-10-24T17:28:37.305Z,15.56
2017-10-24T17:29:59.513Z,15.57
2017-10-24T17:31:21.726Z,15.56
2017-10-24T17:32:44.309Z,15.54
2017-10-24T17:34:06.869Z,15.64
2017-10-24T17:35:29.393Z,15.68
2017-10-24T17:36:51.942Z,15.67
2017-10-24T17:38:14.201Z,15.68
2017-10-24T17:39:36.795Z,15.67
2017-10-24T17:40:59.406Z,15.68